sensor_id;sensor_type;location;lat;lon;timestamp;P1;durP1;ratioP1;P2;durP2;ratioP2
29878;SDS011;16752;53.364;-1.488;2023-11-19T00:02:13;31.05;;;5.47;;
29878;SDS011;16752;53.364;-1.488;2023-11-19T00:04:56;29.13;;;7.13;;
29878;SDS011;16752;53.364;-1.488;2023-11-19T00:07:42;24.33;;;6.88;;
29878;SDS011;16752;53.364;-1.488;2023-11-19T00:10:25;29.77;;;5.88;;
29878;SDS011;16752;53.364;-1.488;2023-11-19T00:13:09;36.22;;;8.18;;
29878;SDS011;16752;53.364;-1.488;2023-11-19T00:15:54;31.70;;;5.30;;
29878;SDS011;16752;53.364;-1.488;2023-11-19T00:18:38;35.40;;;6.13;;
29878;SDS011;16752;53.364;-1.488;2023-11-19T00:21:22;25.30;;;4.90;;
29878;SDS011;16752;53.364;-1.488;2023-11-19T00:24:06;33.97;;;6.97;;
29878;SDS011;16752;53.364;-1.488;2023-11-19T00:26:49;35.33;;;5.78;;
29878;SDS011;16752;53.364;-1.488;2023-11-19T00:29:33;19.00;;;4.93;;
29878;SDS011;16752;53.364;-1.488;2023-11-19T00:32:17;20.75;;;4.53;;
29878;SDS011;16752;53.364;-1.488;2023-11-19T00:35:02;23.65;;;5.28;;
29878;SDS011;16752;53.364;-1.488;2023-11-19T00:37:46;27.35;;;4.72;;
29878;SDS011;16752;53.364;-1.488;2023-11-19T00:40:31;25.05;;;4.82;;
29878;SDS011;16752;53.364;-1.488;2023-11-19T00:43:15;21.75;;;5.78;;
29878;SDS011;16752;53.364;-1.488;2023-11-19T00:46:00;28.63;;;7.70;;
29878;SDS011;16752;53.364;-1.488;2023-11-19T00:48:44;25.48;;;4.82;;
29878;SDS011;16752;53.364;-1.488;2023-11-19T00:51:31;31.90;;;7.10;;
29878;SDS011;16752;53.364;-1.488;2023-11-19T00:54:18;19.33;;;4.15;;
29878;SDS011;16752;53.364;-1.488;2023-11-19T00:57:01;23.60;;;5.97;;
29878;SDS011;16752;53.364;-1.488;2023-11-19T00:59:46;33.08;;;5.68;;
29878;SDS011;16752;53.364;-1.488;2023-11-19T01:02:31;32.78;;;4.93;;
29878;SDS011;16752;53.364;-1.488;2023-11-19T01:05:15;25.98;;;5.60;;
29878;SDS011;16752;53.364;-1.488;2023-11-19T01:07:59;27.88;;;5.65;;
29878;SDS011;16752;53.364;-1.488;2023-11-19T01:10:43;34.72;;;5.93;;
29878;SDS011;16752;53.364;-1.488;2023-11-19T01:13:27;27.67;;;5.15;;
29878;SDS011;16752;53.364;-1.488;2023-11-19T01:16:11;30.35;;;5.13;;
29878;SDS011;16752;53.364;-1.488;2023-11-19T01:18:56;27.40;;;5.20;;
29878;SDS011;16752;53.364;-1.488;2023-11-19T01:21:41;27.48;;;4.68;;
29878;SDS011;16752;53.364;-1.488;2023-11-19T01:24:25;24.70;;;5.43;;
29878;SDS011;16752;53.364;-1.488;2023-11-19T01:27:12;22.20;;;3.58;;
29878;SDS011;16752;53.364;-1.488;2023-11-19T01:29:56;25.85;;;5.22;;
29878;SDS011;16752;53.364;-1.488;2023-11-19T01:32:39;19.42;;;5.55;;
29878;SDS011;16752;53.364;-1.488;2023-11-19T01:35:24;18.98;;;4.22;;
29878;SDS011;16752;53.364;-1.488;2023-11-19T01:38:08;32.90;;;5.20;;
29878;SDS011;16752;53.364;-1.488;2023-11-19T01:40:56;26.63;;;5.55;;
29878;SDS011;16752;53.364;-1.488;2023-11-19T01:43:41;27.23;;;6.10;;
29878;SDS011;16752;53.364;-1.488;2023-11-19T01:46:25;31.88;;;6.30;;
29878;SDS011;16752;53.364;-1.488;2023-11-19T01:49:10;20.27;;;4.85;;
29878;SDS011;16752;53.364;-1.488;2023-11-19T01:51:55;37.30;;;6.20;;
29878;SDS011;16752;53.364;-1.488;2023-11-19T01:54:41;25.58;;;4.82;;
29878;SDS011;16752;53.364;-1.488;2023-11-19T01:57:26;36.90;;;5.47;;
29878;SDS011;16752;53.364;-1.488;2023-11-19T02:00:10;29.45;;;5.38;;
29878;SDS011;16752;53.364;-1.488;2023-11-19T02:02:55;27.27;;;5.35;;
29878;SDS011;16752;53.364;-1.488;2023-11-19T02:05:40;25.30;;;4.25;;
29878;SDS011;16752;53.364;-1.488;2023-11-19T02:08:24;25.00;;;5.25;;
29878;SDS011;16752;53.364;-1.488;2023-11-19T02:11:09;24.25;;;4.60;;
29878;SDS011;16752;53.364;-1.488;2023-11-19T02:13:57;16.85;;;4.15;;
29878;SDS011;16752;53.364;-1.488;2023-11-19T02:16:41;32.58;;;4.85;;
29878;SDS011;16752;53.364;-1.488;2023-11-19T02:19:25;28.70;;;5.88;;
29878;SDS011;16752;53.364;-1.488;2023-11-19T02:22:09;28.58;;;4.90;;
29878;SDS011;16752;53.364;-1.488;2023-11-19T02:24:55;28.70;;;4.95;;
29878;SDS011;16752;53.364;-1.488;2023-11-19T02:30:39;26.65;;;5.47;;
29878;SDS011;16752;53.364;-1.488;2023-11-19T02:33:23;29.45;;;6.70;;
29878;SDS011;16752;53.364;-1.488;2023-11-19T02:36:08;32.65;;;5.88;;
29878;SDS011;16752;53.364;-1.488;2023-11-19T02:38:52;29.13;;;5.35;;
29878;SDS011;16752;53.364;-1.488;2023-11-19T02:41:36;34.80;;;7.20;;
29878;SDS011;16752;53.364;-1.488;2023-11-19T02:44:23;20.98;;;4.95;;
29878;SDS011;16752;53.364;-1.488;2023-11-19T02:47:07;21.25;;;4.20;;
29878;SDS011;16752;53.364;-1.488;2023-11-19T02:49:51;29.08;;;4.63;;
29878;SDS011;16752;53.364;-1.488;2023-11-19T02:52:36;23.67;;;4.45;;
29878;SDS011;16752;53.364;-1.488;2023-11-19T02:55:21;27.60;;;3.95;;
29878;SDS011;16752;53.364;-1.488;2023-11-19T02:58:07;19.48;;;5.22;;
29878;SDS011;16752;53.364;-1.488;2023-11-19T03:01:00;25.65;;;5.20;;
29878;SDS011;16752;53.364;-1.488;2023-11-19T03:03:53;18.20;;;4.25;;
29878;SDS011;16752;53.364;-1.488;2023-11-19T03:06:41;20.65;;;4.53;;
29878;SDS011;16752;53.364;-1.488;2023-11-19T03:09:25;19.35;;;4.68;;
29878;SDS011;16752;53.364;-1.488;2023-11-19T03:12:09;28.85;;;6.05;;
29878;SDS011;16752;53.364;-1.488;2023-11-19T03:14:54;32.65;;;5.68;;
29878;SDS011;16752;53.364;-1.488;2023-11-19T03:17:39;18.90;;;5.28;;
29878;SDS011;16752;53.364;-1.488;2023-11-19T03:20:23;17.23;;;4.13;;
29878;SDS011;16752;53.364;-1.488;2023-11-19T03:23:11;24.13;;;4.80;;
29878;SDS011;16752;53.364;-1.488;2023-11-19T03:25:55;16.52;;;4.43;;
29878;SDS011;16752;53.364;-1.488;2023-11-19T03:28:40;28.63;;;5.50;;
29878;SDS011;16752;53.364;-1.488;2023-11-19T03:31:24;26.88;;;3.90;;
29878;SDS011;16752;53.364;-1.488;2023-11-19T03:34:09;22.98;;;4.38;;
29878;SDS011;16752;53.364;-1.488;2023-11-19T03:36:53;25.55;;;5.40;;
29878;SDS011;16752;53.364;-1.488;2023-11-19T03:39:37;18.67;;;4.32;;
29878;SDS011;16752;53.364;-1.488;2023-11-19T03:42:20;19.17;;;4.60;;
29878;SDS011;16752;53.364;-1.488;2023-11-19T03:45:05;20.08;;;4.32;;
29878;SDS011;16752;53.364;-1.488;2023-11-19T03:47:52;25.35;;;4.85;;
29878;SDS011;16752;53.364;-1.488;2023-11-19T03:50:35;29.13;;;4.57;;
29878;SDS011;16752;53.364;-1.488;2023-11-19T03:53:19;22.33;;;4.22;;
29878;SDS011;16752;53.364;-1.488;2023-11-19T03:56:04;24.25;;;5.18;;
29878;SDS011;16752;53.364;-1.488;2023-11-19T03:58:48;26.02;;;3.75;;
29878;SDS011;16752;53.364;-1.488;2023-11-19T04:01:32;19.33;;;3.53;;
29878;SDS011;16752;53.364;-1.488;2023-11-19T04:04:16;17.65;;;3.75;;
29878;SDS011;16752;53.364;-1.488;2023-11-19T04:07:00;27.35;;;5.18;;
29878;SDS011;16752;53.364;-1.488;2023-11-19T04:09:46;21.58;;;3.55;;
29878;SDS011;16752;53.364;-1.488;2023-11-19T04:12:30;24.17;;;3.85;;
29878;SDS011;16752;53.364;-1.488;2023-11-19T04:15:14;27.77;;;3.45;;
29878;SDS011;16752;53.364;-1.488;2023-11-19T04:17:58;16.25;;;3.90;;
29878;SDS011;16752;53.364;-1.488;2023-11-19T04:20:42;17.00;;;3.78;;
29878;SDS011;16752;53.364;-1.488;2023-11-19T04:23:26;27.67;;;4.22;;
29878;SDS011;16752;53.364;-1.488;2023-11-19T04:26:10;17.90;;;4.07;;
29878;SDS011;16752;53.364;-1.488;2023-11-19T04:28:54;19.27;;;4.03;;
29878;SDS011;16752;53.364;-1.488;2023-11-19T04:31:38;19.65;;;3.58;;
29878;SDS011;16752;53.364;-1.488;2023-11-19T04:34:23;19.38;;;4.03;;
29878;SDS011;16752;53.364;-1.488;2023-11-19T04:37:07;24.55;;;4.43;;
29878;SDS011;16752;53.364;-1.488;2023-11-19T04:39:51;24.83;;;5.18;;
29878;SDS011;16752;53.364;-1.488;2023-11-19T04:42:35;24.85;;;3.83;;
29878;SDS011;16752;53.364;-1.488;2023-11-19T04:45:19;16.35;;;3.80;;
29878;SDS011;16752;53.364;-1.488;2023-11-19T04:48:03;14.82;;;3.88;;
29878;SDS011;16752;53.364;-1.488;2023-11-19T04:50:47;20.58;;;4.47;;
29878;SDS011;16752;53.364;-1.488;2023-11-19T04:53:31;22.08;;;3.53;;
29878;SDS011;16752;53.364;-1.488;2023-11-19T04:56:15;22.20;;;4.07;;
29878;SDS011;16752;53.364;-1.488;2023-11-19T04:59:03;23.90;;;4.68;;
29878;SDS011;16752;53.364;-1.488;2023-11-19T05:01:49;16.35;;;3.13;;
29878;SDS011;16752;53.364;-1.488;2023-11-19T05:04:33;17.42;;;3.47;;
29878;SDS011;16752;53.364;-1.488;2023-11-19T05:07:17;16.85;;;4.78;;
29878;SDS011;16752;53.364;-1.488;2023-11-19T05:10:01;20.02;;;3.10;;
29878;SDS011;16752;53.364;-1.488;2023-11-19T05:12:45;10.13;;;2.42;;
29878;SDS011;16752;53.364;-1.488;2023-11-19T05:15:29;9.95;;;2.38;;
29878;SDS011;16752;53.364;-1.488;2023-11-19T05:18:13;19.70;;;3.22;;
29878;SDS011;16752;53.364;-1.488;2023-11-19T05:20:57;11.38;;;2.60;;
29878;SDS011;16752;53.364;-1.488;2023-11-19T05:23:41;12.50;;;2.92;;
29878;SDS011;16752;53.364;-1.488;2023-11-19T05:26:25;14.13;;;2.50;;
29878;SDS011;16752;53.364;-1.488;2023-11-19T05:29:10;12.80;;;2.53;;
29878;SDS011;16752;53.364;-1.488;2023-11-19T05:31:54;22.42;;;4.22;;
29878;SDS011;16752;53.364;-1.488;2023-11-19T05:34:39;23.67;;;4.35;;
29878;SDS011;16752;53.364;-1.488;2023-11-19T05:37:23;15.05;;;3.80;;
29878;SDS011;16752;53.364;-1.488;2023-11-19T05:40:07;21.63;;;3.63;;
29878;SDS011;16752;53.364;-1.488;2023-11-19T05:42:57;24.63;;;4.25;;
29878;SDS011;16752;53.364;-1.488;2023-11-19T05:45:42;15.73;;;3.47;;
29878;SDS011;16752;53.364;-1.488;2023-11-19T05:48:26;17.52;;;3.00;;
29878;SDS011;16752;53.364;-1.488;2023-11-19T05:51:10;21.85;;;2.83;;
29878;SDS011;16752;53.364;-1.488;2023-11-19T05:53:54;23.65;;;5.88;;
29878;SDS011;16752;53.364;-1.488;2023-11-19T05:56:39;10.57;;;2.88;;
29878;SDS011;16752;53.364;-1.488;2023-11-19T05:59:23;23.15;;;3.78;;
29878;SDS011;16752;53.364;-1.488;2023-11-19T06:02:08;13.70;;;3.13;;
29878;SDS011;16752;53.364;-1.488;2023-11-19T06:04:51;30.25;;;5.53;;
29878;SDS011;16752;53.364;-1.488;2023-11-19T06:07:35;27.35;;;5.45;;
29878;SDS011;16752;53.364;-1.488;2023-11-19T06:10:20;21.42;;;3.53;;
29878;SDS011;16752;53.364;-1.488;2023-11-19T06:13:04;14.90;;;3.50;;
29878;SDS011;16752;53.364;-1.488;2023-11-19T06:15:48;20.67;;;3.05;;
29878;SDS011;16752;53.364;-1.488;2023-11-19T06:18:34;14.75;;;3.13;;
29878;SDS011;16752;53.364;-1.488;2023-11-19T06:21:20;15.65;;;4.20;;
29878;SDS011;16752;53.364;-1.488;2023-11-19T06:24:04;20.80;;;4.10;;
29878;SDS011;16752;53.364;-1.488;2023-11-19T06:26:48;20.27;;;4.25;;
29878;SDS011;16752;53.364;-1.488;2023-11-19T06:29:32;20.90;;;3.60;;
29878;SDS011;16752;53.364;-1.488;2023-11-19T06:32:16;25.02;;;4.00;;
29878;SDS011;16752;53.364;-1.488;2023-11-19T06:35:00;15.82;;;3.15;;
29878;SDS011;16752;53.364;-1.488;2023-11-19T06:37:44;21.75;;;3.92;;
29878;SDS011;16752;53.364;-1.488;2023-11-19T06:40:28;17.45;;;3.80;;
29878;SDS011;16752;53.364;-1.488;2023-11-19T06:43:13;14.52;;;2.85;;
29878;SDS011;16752;53.364;-1.488;2023-11-19T06:45:57;16.38;;;2.88;;
29878;SDS011;16752;53.364;-1.488;2023-11-19T06:48:41;12.75;;;2.47;;
29878;SDS011;16752;53.364;-1.488;2023-11-19T06:51:27;18.48;;;3.67;;
29878;SDS011;16752;53.364;-1.488;2023-11-19T06:54:13;14.60;;;3.08;;
29878;SDS011;16752;53.364;-1.488;2023-11-19T06:56:57;17.95;;;3.05;;
29878;SDS011;16752;53.364;-1.488;2023-11-19T06:59:44;11.88;;;2.45;;
29878;SDS011;16752;53.364;-1.488;2023-11-19T07:02:28;15.90;;;3.03;;
29878;SDS011;16752;53.364;-1.488;2023-11-19T07:05:12;12.05;;;3.42;;
29878;SDS011;16752;53.364;-1.488;2023-11-19T07:07:56;20.10;;;4.63;;
29878;SDS011;16752;53.364;-1.488;2023-11-19T07:10:40;17.73;;;3.30;;
29878;SDS011;16752;53.364;-1.488;2023-11-19T07:13:24;16.77;;;3.10;;
29878;SDS011;16752;53.364;-1.488;2023-11-19T07:16:11;17.50;;;3.33;;
29878;SDS011;16752;53.364;-1.488;2023-11-19T07:18:58;16.52;;;2.67;;
29878;SDS011;16752;53.364;-1.488;2023-11-19T07:21:43;13.40;;;3.13;;
29878;SDS011;16752;53.364;-1.488;2023-11-19T07:24:30;12.30;;;2.72;;
29878;SDS011;16752;53.364;-1.488;2023-11-19T07:27:15;13.32;;;2.53;;
29878;SDS011;16752;53.364;-1.488;2023-11-19T07:29:59;12.95;;;2.50;;
29878;SDS011;16752;53.364;-1.488;2023-11-19T07:32:43;18.25;;;2.72;;
29878;SDS011;16752;53.364;-1.488;2023-11-19T07:35:27;14.38;;;3.08;;
29878;SDS011;16752;53.364;-1.488;2023-11-19T07:38:14;11.82;;;3.20;;
29878;SDS011;16752;53.364;-1.488;2023-11-19T07:40:58;21.77;;;3.53;;
29878;SDS011;16752;53.364;-1.488;2023-11-19T07:43:43;20.33;;;4.53;;
29878;SDS011;16752;53.364;-1.488;2023-11-19T07:46:28;15.15;;;2.70;;
29878;SDS011;16752;53.364;-1.488;2023-11-19T07:49:12;12.88;;;2.90;;
29878;SDS011;16752;53.364;-1.488;2023-11-19T07:51:56;19.98;;;3.75;;
29878;SDS011;16752;53.364;-1.488;2023-11-19T07:54:39;13.77;;;2.38;;
29878;SDS011;16752;53.364;-1.488;2023-11-19T07:57:23;14.98;;;3.83;;
29878;SDS011;16752;53.364;-1.488;2023-11-19T08:00:08;16.38;;;3.40;;
29878;SDS011;16752;53.364;-1.488;2023-11-19T08:02:56;20.15;;;2.40;;
29878;SDS011;16752;53.364;-1.488;2023-11-19T08:05:40;18.52;;;3.22;;
29878;SDS011;16752;53.364;-1.488;2023-11-19T08:08:24;13.15;;;2.90;;
29878;SDS011;16752;53.364;-1.488;2023-11-19T08:11:08;19.75;;;3.08;;
29878;SDS011;16752;53.364;-1.488;2023-11-19T08:13:52;19.77;;;3.70;;
29878;SDS011;16752;53.364;-1.488;2023-11-19T08:16:36;25.58;;;6.55;;
29878;SDS011;16752;53.364;-1.488;2023-11-19T08:19:21;27.42;;;5.00;;
29878;SDS011;16752;53.364;-1.488;2023-11-19T08:22:05;16.15;;;3.67;;
29878;SDS011;16752;53.364;-1.488;2023-11-19T08:24:49;13.85;;;2.95;;
29878;SDS011;16752;53.364;-1.488;2023-11-19T08:27:33;17.48;;;3.10;;
29878;SDS011;16752;53.364;-1.488;2023-11-19T08:30:17;18.60;;;3.90;;
29878;SDS011;16752;53.364;-1.488;2023-11-19T08:33:01;19.00;;;5.10;;
29878;SDS011;16752;53.364;-1.488;2023-11-19T08:35:46;22.50;;;4.10;;
29878;SDS011;16752;53.364;-1.488;2023-11-19T08:38:30;14.32;;;3.75;;
29878;SDS011;16752;53.364;-1.488;2023-11-19T08:41:15;20.27;;;3.30;;
29878;SDS011;16752;53.364;-1.488;2023-11-19T08:44:01;17.67;;;4.53;;
29878;SDS011;16752;53.364;-1.488;2023-11-19T08:46:48;13.82;;;2.92;;
29878;SDS011;16752;53.364;-1.488;2023-11-19T08:49:32;21.00;;;3.20;;
29878;SDS011;16752;53.364;-1.488;2023-11-19T08:52:16;13.88;;;3.10;;
29878;SDS011;16752;53.364;-1.488;2023-11-19T08:55:01;17.02;;;4.70;;
29878;SDS011;16752;53.364;-1.488;2023-11-19T08:57:46;20.30;;;4.22;;
29878;SDS011;16752;53.364;-1.488;2023-11-19T09:00:30;15.48;;;3.67;;
29878;SDS011;16752;53.364;-1.488;2023-11-19T09:03:16;16.02;;;2.47;;
29878;SDS011;16752;53.364;-1.488;2023-11-19T09:06:00;14.18;;;3.58;;
29878;SDS011;16752;53.364;-1.488;2023-11-19T09:08:44;18.38;;;4.03;;
29878;SDS011;16752;53.364;-1.488;2023-11-19T09:11:28;20.23;;;4.82;;
29878;SDS011;16752;53.364;-1.488;2023-11-19T09:14:14;14.25;;;2.85;;
29878;SDS011;16752;53.364;-1.488;2023-11-19T09:16:57;12.88;;;3.58;;
29878;SDS011;16752;53.364;-1.488;2023-11-19T09:19:41;17.85;;;3.67;;
29878;SDS011;16752;53.364;-1.488;2023-11-19T09:22:25;15.90;;;3.38;;
29878;SDS011;16752;53.364;-1.488;2023-11-19T09:25:09;17.05;;;3.38;;
29878;SDS011;16752;53.364;-1.488;2023-11-19T09:27:53;13.90;;;3.50;;
29878;SDS011;16752;53.364;-1.488;2023-11-19T09:30:37;12.18;;;2.47;;
29878;SDS011;16752;53.364;-1.488;2023-11-19T09:33:21;19.05;;;4.15;;
29878;SDS011;16752;53.364;-1.488;2023-11-19T09:36:05;15.07;;;3.00;;
29878;SDS011;16752;53.364;-1.488;2023-11-19T09:38:50;12.32;;;2.97;;
29878;SDS011;16752;53.364;-1.488;2023-11-19T09:41:34;17.90;;;3.60;;
29878;SDS011;16752;53.364;-1.488;2023-11-19T09:44:18;17.70;;;3.47;;
29878;SDS011;16752;53.364;-1.488;2023-11-19T09:47:03;21.08;;;4.07;;
29878;SDS011;16752;53.364;-1.488;2023-11-19T09:49:48;11.63;;;2.72;;
29878;SDS011;16752;53.364;-1.488;2023-11-19T09:52:33;12.13;;;4.00;;
29878;SDS011;16752;53.364;-1.488;2023-11-19T09:55:17;15.45;;;2.70;;
29878;SDS011;16752;53.364;-1.488;2023-11-19T09:58:01;11.15;;;2.78;;
29878;SDS011;16752;53.364;-1.488;2023-11-19T10:00:45;10.10;;;2.58;;
29878;SDS011;16752;53.364;-1.488;2023-11-19T10:03:32;9.10;;;1.88;;
29878;SDS011;16752;53.364;-1.488;2023-11-19T10:06:27;8.23;;;3.53;;
29878;SDS011;16752;53.364;-1.488;2023-11-19T10:09:12;8.43;;;1.70;;
29878;SDS011;16752;53.364;-1.488;2023-11-19T10:11:58;10.32;;;2.17;;
29878;SDS011;16752;53.364;-1.488;2023-11-19T10:14:42;10.13;;;1.95;;
29878;SDS011;16752;53.364;-1.488;2023-11-19T10:17:33;5.43;;;1.73;;
29878;SDS011;16752;53.364;-1.488;2023-11-19T10:20:18;18.38;;;2.30;;
29878;SDS011;16752;53.364;-1.488;2023-11-19T10:23:02;12.05;;;1.80;;
29878;SDS011;16752;53.364;-1.488;2023-11-19T10:25:46;10.70;;;2.17;;
29878;SDS011;16752;53.364;-1.488;2023-11-19T10:28:39;13.15;;;2.55;;
29878;SDS011;16752;53.364;-1.488;2023-11-19T10:31:29;7.97;;;2.10;;
29878;SDS011;16752;53.364;-1.488;2023-11-19T10:34:23;7.05;;;1.98;;
29878;SDS011;16752;53.364;-1.488;2023-11-19T10:37:09;6.65;;;2.47;;
29878;SDS011;16752;53.364;-1.488;2023-11-19T10:40:11;6.85;;;2.13;;
29878;SDS011;16752;53.364;-1.488;2023-11-19T10:43:01;11.65;;;2.25;;
29878;SDS011;16752;53.364;-1.488;2023-11-19T10:45:46;8.88;;;2.10;;
29878;SDS011;16752;53.364;-1.488;2023-11-19T10:48:30;13.70;;;3.25;;
29878;SDS011;16752;53.364;-1.488;2023-11-19T10:51:16;12.32;;;2.10;;
29878;SDS011;16752;53.364;-1.488;2023-11-19T10:54:07;10.85;;;1.92;;
29878;SDS011;16752;53.364;-1.488;2023-11-19T10:56:58;8.95;;;2.28;;
29878;SDS011;16752;53.364;-1.488;2023-11-19T10:59:44;8.00;;;1.95;;
29878;SDS011;16752;53.364;-1.488;2023-11-19T11:02:29;7.65;;;1.98;;
29878;SDS011;16752;53.364;-1.488;2023-11-19T11:05:19;7.90;;;1.65;;
29878;SDS011;16752;53.364;-1.488;2023-11-19T11:08:06;10.60;;;2.80;;
29878;SDS011;16752;53.364;-1.488;2023-11-19T11:10:54;8.80;;;1.35;;
29878;SDS011;16752;53.364;-1.488;2023-11-19T11:13:40;10.57;;;1.80;;
29878;SDS011;16752;53.364;-1.488;2023-11-19T11:16:25;15.07;;;2.10;;
29878;SDS011;16752;53.364;-1.488;2023-11-19T11:19:10;7.63;;;1.25;;
29878;SDS011;16752;53.364;-1.488;2023-11-19T11:21:56;11.68;;;1.80;;
29878;SDS011;16752;53.364;-1.488;2023-11-19T11:25:04;5.45;;;1.30;;
29878;SDS011;16752;53.364;-1.488;2023-11-19T11:28:03;8.27;;;1.40;;
29878;SDS011;16752;53.364;-1.488;2023-11-19T11:39:47;5.95;;;1.10;;
29878;SDS011;16752;53.364;-1.488;2023-11-19T11:42:34;4.03;;;1.30;;
29878;SDS011;16752;53.364;-1.488;2023-11-19T11:45:18;8.45;;;1.55;;
29878;SDS011;16752;53.364;-1.488;2023-11-19T11:48:04;5.75;;;1.45;;
29878;SDS011;16752;53.364;-1.488;2023-11-19T11:53:37;4.70;;;2.00;;
29878;SDS011;16752;53.364;-1.488;2023-11-19T11:56:21;5.28;;;1.98;;
29878;SDS011;16752;53.364;-1.488;2023-11-19T11:59:27;5.22;;;1.63;;
29878;SDS011;16752;53.364;-1.488;2023-11-19T12:02:10;3.17;;;1.60;;
29878;SDS011;16752;53.364;-1.488;2023-11-19T12:04:55;5.38;;;1.77;;
29878;SDS011;16752;53.364;-1.488;2023-11-19T12:07:39;3.65;;;1.30;;
29878;SDS011;16752;53.364;-1.488;2023-11-19T12:10:28;4.85;;;1.40;;
29878;SDS011;16752;53.364;-1.488;2023-11-19T12:13:17;6.25;;;1.40;;
29878;SDS011;16752;53.364;-1.488;2023-11-19T12:18:46;4.22;;;1.30;;
29878;SDS011;16752;53.364;-1.488;2023-11-19T12:21:31;5.43;;;1.35;;
29878;SDS011;16752;53.364;-1.488;2023-11-19T12:24:16;3.97;;;1.10;;
29878;SDS011;16752;53.364;-1.488;2023-11-19T12:27:00;4.00;;;1.67;;
29878;SDS011;16752;53.364;-1.488;2023-11-19T12:29:44;2.20;;;1.40;;
29878;SDS011;16752;53.364;-1.488;2023-11-19T12:32:36;4.45;;;1.35;;
29878;SDS011;16752;53.364;-1.488;2023-11-19T12:35:21;9.95;;;1.77;;
29878;SDS011;16752;53.364;-1.488;2023-11-19T12:38:05;4.47;;;1.38;;
29878;SDS011;16752;53.364;-1.488;2023-11-19T12:41:02;6.70;;;1.25;;
29878;SDS011;16752;53.364;-1.488;2023-11-19T12:43:46;2.80;;;1.23;;
29878;SDS011;16752;53.364;-1.488;2023-11-19T12:46:30;5.13;;;1.35;;
29878;SDS011;16752;53.364;-1.488;2023-11-19T12:49:15;4.13;;;1.20;;
29878;SDS011;16752;53.364;-1.488;2023-11-19T12:51:59;4.10;;;0.98;;
29878;SDS011;16752;53.364;-1.488;2023-11-19T12:54:43;1.40;;;0.65;;
29878;SDS011;16752;53.364;-1.488;2023-11-19T12:57:37;4.32;;;0.85;;
29878;SDS011;16752;53.364;-1.488;2023-11-19T13:00:22;0.88;;;0.80;;
29878;SDS011;16752;53.364;-1.488;2023-11-19T13:03:08;2.10;;;0.60;;
29878;SDS011;16752;53.364;-1.488;2023-11-19T13:05:52;0.98;;;0.60;;
29878;SDS011;16752;53.364;-1.488;2023-11-19T13:08:48;4.18;;;0.60;;
29878;SDS011;16752;53.364;-1.488;2023-11-19T13:11:35;1.92;;;0.60;;
29878;SDS011;16752;53.364;-1.488;2023-11-19T13:14:20;0.80;;;0.40;;
29878;SDS011;16752;53.364;-1.488;2023-11-19T13:17:04;2.63;;;1.67;;
29878;SDS011;16752;53.364;-1.488;2023-11-19T13:19:49;1.10;;;0.60;;
29878;SDS011;16752;53.364;-1.488;2023-11-19T13:22:34;2.67;;;0.68;;
29878;SDS011;16752;53.364;-1.488;2023-11-19T13:25:18;1.45;;;1.00;;
29878;SDS011;16752;53.364;-1.488;2023-11-19T13:28:02;1.90;;;0.77;;
29878;SDS011;16752;53.364;-1.488;2023-11-19T13:30:46;4.15;;;1.50;;
29878;SDS011;16752;53.364;-1.488;2023-11-19T13:33:30;2.45;;;0.88;;
29878;SDS011;16752;53.364;-1.488;2023-11-19T13:36:14;1.85;;;0.73;;
29878;SDS011;16752;53.364;-1.488;2023-11-19T13:38:58;2.35;;;0.90;;
29878;SDS011;16752;53.364;-1.488;2023-11-19T13:41:43;1.15;;;0.80;;
29878;SDS011;16752;53.364;-1.488;2023-11-19T13:44:27;0.73;;;0.73;;
29878;SDS011;16752;53.364;-1.488;2023-11-19T13:47:11;0.98;;;0.88;;
29878;SDS011;16752;53.364;-1.488;2023-11-19T13:49:55;3.03;;;0.80;;
29878;SDS011;16752;53.364;-1.488;2023-11-19T13:52:40;2.55;;;0.82;;
29878;SDS011;16752;53.364;-1.488;2023-11-19T13:55:25;1.60;;;0.77;;
29878;SDS011;16752;53.364;-1.488;2023-11-19T13:58:10;1.48;;;0.68;;
29878;SDS011;16752;53.364;-1.488;2023-11-19T14:00:54;4.60;;;0.98;;
29878;SDS011;16752;53.364;-1.488;2023-11-19T14:03:38;2.42;;;0.68;;
29878;SDS011;16752;53.364;-1.488;2023-11-19T14:06:22;2.33;;;0.73;;
29878;SDS011;16752;53.364;-1.488;2023-11-19T14:09:06;0.75;;;0.63;;
29878;SDS011;16752;53.364;-1.488;2023-11-19T14:11:50;2.53;;;0.50;;
29878;SDS011;16752;53.364;-1.488;2023-11-19T14:14:35;0.77;;;0.60;;
29878;SDS011;16752;53.364;-1.488;2023-11-19T14:17:19;1.63;;;0.60;;
29878;SDS011;16752;53.364;-1.488;2023-11-19T14:20:03;1.65;;;0.82;;
29878;SDS011;16752;53.364;-1.488;2023-11-19T14:22:56;0.60;;;0.60;;
29878;SDS011;16752;53.364;-1.488;2023-11-19T14:25:40;1.08;;;0.60;;
29878;SDS011;16752;53.364;-1.488;2023-11-19T14:28:24;1.25;;;1.00;;
29878;SDS011;16752;53.364;-1.488;2023-11-19T14:31:09;0.70;;;0.70;;
29878;SDS011;16752;53.364;-1.488;2023-11-19T14:33:53;1.77;;;1.00;;
29878;SDS011;16752;53.364;-1.488;2023-11-19T14:36:37;5.05;;;1.80;;
29878;SDS011;16752;53.364;-1.488;2023-11-19T14:39:21;3.75;;;1.70;;
29878;SDS011;16752;53.364;-1.488;2023-11-19T14:42:05;3.55;;;1.92;;
29878;SDS011;16752;53.364;-1.488;2023-11-19T14:44:49;0.70;;;0.55;;
29878;SDS011;16752;53.364;-1.488;2023-11-19T14:47:33;0.77;;;0.77;;
29878;SDS011;16752;53.364;-1.488;2023-11-19T14:50:17;0.47;;;0.47;;
29878;SDS011;16752;53.364;-1.488;2023-11-19T14:53:01;0.52;;;0.52;;
29878;SDS011;16752;53.364;-1.488;2023-11-19T14:55:45;1.10;;;0.65;;
29878;SDS011;16752;53.364;-1.488;2023-11-19T14:58:29;0.60;;;0.60;;
29878;SDS011;16752;53.364;-1.488;2023-11-19T15:01:13;1.10;;;0.70;;
29878;SDS011;16752;53.364;-1.488;2023-11-19T15:03:58;1.13;;;0.60;;
29878;SDS011;16752;53.364;-1.488;2023-11-19T15:06:42;0.70;;;0.65;;
29878;SDS011;16752;53.364;-1.488;2023-11-19T15:09:26;2.28;;;0.80;;
29878;SDS011;16752;53.364;-1.488;2023-11-19T15:12:09;0.70;;;0.70;;
29878;SDS011;16752;53.364;-1.488;2023-11-19T15:14:54;1.02;;;0.80;;
29878;SDS011;16752;53.364;-1.488;2023-11-19T15:17:39;1.05;;;0.70;;
29878;SDS011;16752;53.364;-1.488;2023-11-19T15:20:23;2.10;;;0.70;;
29878;SDS011;16752;53.364;-1.488;2023-11-19T15:23:07;2.42;;;0.60;;
29878;SDS011;16752;53.364;-1.488;2023-11-19T15:25:52;4.05;;;0.85;;
29878;SDS011;16752;53.364;-1.488;2023-11-19T15:28:37;0.95;;;0.60;;
29878;SDS011;16752;53.364;-1.488;2023-11-19T15:31:22;2.28;;;0.82;;
29878;SDS011;16752;53.364;-1.488;2023-11-19T15:34:06;2.08;;;0.73;;
29878;SDS011;16752;53.364;-1.488;2023-11-19T15:36:50;1.75;;;0.65;;
29878;SDS011;16752;53.364;-1.488;2023-11-19T15:39:34;4.15;;;0.90;;
29878;SDS011;16752;53.364;-1.488;2023-11-19T15:42:19;2.65;;;1.02;;
29878;SDS011;16752;53.364;-1.488;2023-11-19T15:45:03;2.60;;;0.57;;
29878;SDS011;16752;53.364;-1.488;2023-11-19T15:47:49;1.33;;;0.63;;
29878;SDS011;16752;53.364;-1.488;2023-11-19T15:50:33;1.88;;;0.80;;
29878;SDS011;16752;53.364;-1.488;2023-11-19T15:53:17;0.63;;;0.50;;
29878;SDS011;16752;53.364;-1.488;2023-11-19T15:56:02;0.80;;;0.80;;
29878;SDS011;16752;53.364;-1.488;2023-11-19T15:58:47;0.70;;;0.63;;
29878;SDS011;16752;53.364;-1.488;2023-11-19T16:01:32;0.90;;;0.70;;
29878;SDS011;16752;53.364;-1.488;2023-11-19T16:04:16;2.50;;;0.77;;
29878;SDS011;16752;53.364;-1.488;2023-11-19T16:07:00;1.50;;;0.80;;
29878;SDS011;16752;53.364;-1.488;2023-11-19T16:09:44;1.33;;;0.70;;
29878;SDS011;16752;53.364;-1.488;2023-11-19T16:12:28;1.13;;;0.60;;
29878;SDS011;16752;53.364;-1.488;2023-11-19T16:15:12;1.08;;;0.70;;
29878;SDS011;16752;53.364;-1.488;2023-11-19T16:17:58;1.17;;;0.60;;
29878;SDS011;16752;53.364;-1.488;2023-11-19T16:20:42;2.05;;;0.80;;
29878;SDS011;16752;53.364;-1.488;2023-11-19T16:23:26;0.70;;;0.70;;
29878;SDS011;16752;53.364;-1.488;2023-11-19T16:26:11;1.95;;;0.73;;
29878;SDS011;16752;53.364;-1.488;2023-11-19T16:28:55;0.63;;;0.63;;